Time;durP1;ratioP1;P1;durP2;ratioP2;P2;SDS_P1;SDS_P2;PMS_P1;PMS_P2;Temp;Humidity;BMP_temperature;BMP_pressure;BME280_temperature;BME280_humidity;BME280_pressure;Samples;Min_cycle;Max_cycle;Signal;HPM_P1;HPM_P2
2022/10/11 00:00:14;;;;;;;;;;;6.70;99.90;;;;;;5082693;28;20371;-65
2022/10/11 00:02:40;;;;;;;;;;;6.70;99.90;;;;;;5083214;28;19932;-65
2022/10/11 00:05:08;;;;;;;;;;;6.70;99.90;;;;;;5084065;28;19932;-65
2022/10/11 00:07:34;;;;;;;;;;;6.70;99.90;;;;;;5085145;28;19924;-65
2022/10/11 00:10:03;;;;;;;;;;;6.70;99.90;;;;;;5088665;28;19934;-65
2022/10/11 00:12:29;;;;;;;;;;;6.70;99.90;;;;;;5084050;28;19924;-65
2022/10/11 00:14:56;;;;;;;;;;;6.70;99.90;;;;;;5082527;28;19964;-66
2022/10/11 00:17:22;;;;;;;;;;;6.70;99.90;;;;;;5083733;28;19932;-65
2022/10/11 00:19:49;;;;;;;;;;;6.70;99.90;;;;;;5080791;28;19931;-66
2022/10/11 00:22:16;;;;;;;;;;;6.70;99.90;;;;;;5082278;28;19935;-65
2022/10/11 00:24:43;;;;;;;;;;;6.60;99.90;;;;;;5089193;28;20301;-65
2022/10/11 00:27:11;;;;;;;;;;;6.60;99.90;;;;;;5086371;28;19977;-65
2022/10/11 00:29:37;;;;;;;;;;;6.60;99.90;;;;;;5082680;28;19934;-66
2022/10/11 00:32:04;;;;;;;;;;;6.60;99.90;;;;;;5082877;28;19931;-66
2022/10/11 00:34:31;;;;;;;;;;;6.60;99.90;;;;;;5092083;28;19977;-66
2022/10/11 00:36:57;;;;;;;;;;;6.50;99.90;;;;;;5089864;28;20519;-66
2022/10/11 00:39:24;;;;;;;;;;;6.50;99.90;;;;;;5080138;28;19931;-66
2022/10/11 00:41:51;;;;;;;;;;;6.40;99.90;;;;;;5081228;28;19932;-66
2022/10/11 00:44:21;;;;;;;;;;;6.30;99.90;;;;;;5080164;28;19938;-66
2022/10/11 00:46:51;;;;;;;;;;;6.30;99.90;;;;;;5085347;28;19936;-66
2022/10/11 00:49:21;;;;;;;;;;;6.30;99.90;;;;;;5087221;28;19960;-66
2022/10/11 00:51:50;;;;;;;;;;;6.20;99.90;;;;;;5104839;28;19930;-66
2022/10/11 00:54:18;;;;;;;;;;;6.30;99.90;;;;;;5079534;28;19940;-65
2022/10/11 00:56:48;;;;;;;;;;;6.30;99.90;;;;;;5080828;28;20204;-65
2022/10/11 00:59:16;;;;;;;;;;;6.30;99.90;;;;;;5081273;28;19950;-65
2022/10/11 01:01:44;;;;;;;;;;;6.20;99.90;;;;;;5083471;28;19924;-64
2022/10/11 01:04:11;;;;;;;;;;;6.20;99.90;;;;;;5083621;28;19932;-65
2022/10/11 01:06:37;;;;;;;;;;;6.20;99.90;;;;;;5083512;28;19931;-64
2022/10/11 01:09:04;;;;;;;;;;;6.20;99.90;;;;;;5087221;28;21148;-64
2022/10/11 01:11:31;;;;;;;;;;;6.20;99.90;;;;;;5090489;28;20355;-64
2022/10/11 01:14:23;;;;;;;;;;;6.20;99.90;;;;;;5090136;28;20011;-64
2022/10/11 01:16:55;;;;;;;;;;;6.20;99.90;;;;;;5089822;28;19924;-65
2022/10/11 01:19:41;;;;;;;;;;;6.10;99.90;;;;;;5086210;28;20346;-64
2022/10/11 01:22:16;;;;;;;;;;;6.10;99.90;;;;;;5082484;28;19934;-64
2022/10/11 01:24:53;;;;;;;;;;;6.10;99.90;;;;;;5088641;28;19974;-65
2022/10/11 01:27:29;;;;;;;;;;;6.10;99.90;;;;;;5090536;28;19930;-64
2022/10/11 01:30:02;;;;;;;;;;;6.00;99.90;;;;;;5090198;28;19938;-64
2022/10/11 01:32:34;;;;;;;;;;;6.10;99.90;;;;;;5093969;28;19932;-64
2022/10/11 01:35:03;;;;;;;;;;;6.00;99.90;;;;;;5095935;28;19973;-65
2022/10/11 01:37:32;;;;;;;;;;;5.90;99.90;;;;;;5088967;28;19931;-64
2022/10/11 01:40:02;;;;;;;;;;;5.70;99.90;;;;;;5085480;28;19924;-65
2022/10/11 01:42:30;;;;;;;;;;;5.60;99.90;;;;;;5088791;28;20307;-64
2022/10/11 01:44:57;;;;;;;;;;;5.60;99.90;;;;;;5086346;28;19932;-64
2022/10/11 01:47:24;;;;;;;;;;;5.60;99.90;;;;;;5086710;28;20390;-64
2022/10/11 01:49:57;;;;;;;;;;;5.60;99.90;;;;;;5085672;28;19928;-66
2022/10/11 01:52:23;;;;;;;;;;;5.70;99.90;;;;;;5090649;28;20551;-65
2022/10/11 01:54:57;;;;;;;;;;;5.70;99.90;;;;;;5090013;28;19932;-65
2022/10/11 01:57:32;;;;;;;;;;;5.70;99.90;;;;;;5089779;28;19924;-65
2022/10/11 02:00:02;;;;;;;;;;;5.70;99.90;;;;;;5094736;28;19930;-65
2022/10/11 02:02:37;;;;;;;;;;;5.60;99.90;;;;;;5093156;28;19924;-66
2022/10/11 02:05:08;;;;;;;;;;;5.70;99.90;;;;;;5088123;28;19924;-65
2022/10/11 02:07:39;;;;;;;;;;;5.70;99.90;;;;;;5089684;28;20336;-65
2022/10/11 02:10:10;;;;;;;;;;;5.60;99.90;;;;;;5093085;28;19932;-65
2022/10/11 02:12:39;;;;;;;;;;;5.50;99.90;;;;;;5092325;28;19928;-65
2022/10/11 02:15:08;;;;;;;;;;;5.50;99.90;;;;;;5094566;28;19977;-65
2022/10/11 02:17:37;;;;;;;;;;;5.60;99.90;;;;;;5083469;28;19931;-65
2022/10/11 02:20:07;;;;;;;;;;;5.60;99.90;;;;;;5089121;28;20016;-65
2022/10/11 02:22:37;;;;;;;;;;;5.60;99.90;;;;;;5097799;28;19924;-64
2022/10/11 02:25:06;;;;;;;;;;;5.70;99.90;;;;;;5094035;28;19923;-65
2022/10/11 02:27:33;;;;;;;;;;;5.70;99.90;;;;;;5092939;28;19931;-64
2022/10/11 02:30:02;;;;;;;;;;;5.60;99.90;;;;;;5094271;28;20560;-65
2022/10/11 02:32:30;;;;;;;;;;;5.60;99.90;;;;;;5093692;28;19924;-65
2022/10/11 02:34:58;;;;;;;;;;;5.50;99.90;;;;;;5094544;28;20022;-65
2022/10/11 02:37:27;;;;;;;;;;;5.40;99.90;;;;;;5091443;28;19924;-65
2022/10/11 02:39:58;;;;;;;;;;;5.40;99.90;;;;;;5092318;28;20011;-65
2022/10/11 02:42:28;;;;;;;;;;;5.40;99.90;;;;;;5091809;28;19938;-65
2022/10/11 02:44:59;;;;;;;;;;;5.40;99.90;;;;;;5096083;28;20547;-65
2022/10/11 02:47:26;;;;;;;;;;;5.40;99.90;;;;;;5089253;28;20424;-65
2022/10/11 02:49:53;;;;;;;;;;;5.40;99.90;;;;;;5092191;28;20410;-65
2022/10/11 02:52:19;;;;;;;;;;;5.30;99.90;;;;;;5106569;28;19930;-65
2022/10/11 02:54:46;;;;;;;;;;;5.30;99.90;;;;;;5093040;28;19935;-65
2022/10/11 02:57:14;;;;;;;;;;;5.30;99.90;;;;;;5092804;28;19930;-65
2022/10/11 02:59:41;;;;;;;;;;;5.30;99.90;;;;;;5091192;28;19924;-65
2022/10/11 03:02:07;;;;;;;;;;;5.20;99.90;;;;;;5096272;28;19931;-65
2022/10/11 03:04:34;;;;;;;;;;;5.20;99.90;;;;;;5084528;28;19924;-65
2022/10/11 03:07:01;;;;;;;;;;;5.20;99.90;;;;;;5096767;28;19963;-65
2022/10/11 03:09:27;;;;;;;;;;;5.20;99.90;;;;;;5092915;28;19925;-65
2022/10/11 03:11:54;;;;;;;;;;;5.20;99.90;;;;;;5092808;28;19946;-65
2022/10/11 03:14:22;;;;;;;;;;;5.20;99.90;;;;;;5093381;28;19942;-65
2022/10/11 03:16:48;;;;;;;;;;;5.20;99.90;;;;;;5099712;28;19931;-66
2022/10/11 03:19:15;;;;;;;;;;;5.30;99.90;;;;;;5091045;28;19970;-65
2022/10/11 03:21:42;;;;;;;;;;;5.20;99.90;;;;;;5101499;28;19924;-65
2022/10/11 03:24:08;;;;;;;;;;;5.20;99.90;;;;;;5091491;28;20027;-65
2022/10/11 03:26:35;;;;;;;;;;;5.20;99.90;;;;;;5097546;28;20014;-65
2022/10/11 03:29:02;;;;;;;;;;;5.10;99.90;;;;;;5092013;28;19964;-65
2022/10/11 03:31:30;;;;;;;;;;;5.00;99.90;;;;;;5100898;28;19931;-65
2022/10/11 03:33:56;;;;;;;;;;;5.10;99.90;;;;;;5090511;28;20304;-65
2022/10/11 03:36:23;;;;;;;;;;;5.10;99.90;;;;;;5089245;28;20294;-65
2022/10/11 03:38:50;;;;;;;;;;;5.10;99.90;;;;;;5090278;28;19924;-65
2022/10/11 03:41:16;;;;;;;;;;;5.00;99.90;;;;;;5101013;28;20400;-65
2022/10/11 03:43:43;;;;;;;;;;;5.00;99.90;;;;;;5098728;28;20010;-65
2022/10/11 03:46:09;;;;;;;;;;;5.00;99.90;;;;;;5089801;28;19942;-65
2022/10/11 03:48:37;;;;;;;;;;;5.00;99.90;;;;;;5089290;28;19939;-66
2022/10/11 03:51:05;;;;;;;;;;;5.00;99.90;;;;;;5098971;28;20391;-66
2022/10/11 03:53:31;;;;;;;;;;;5.00;99.90;;;;;;5092947;28;19924;-65
2022/10/11 03:55:58;;;;;;;;;;;5.10;99.90;;;;;;5090380;28;19946;-65
2022/10/11 03:58:24;;;;;;;;;;;5.10;99.90;;;;;;5093965;28;19934;-65
2022/10/11 04:00:51;;;;;;;;;;;5.10;99.90;;;;;;5088213;28;19930;-65
2022/10/11 04:03:18;;;;;;;;;;;5.10;99.90;;;;;;5092857;28;19924;-65
2022/10/11 04:05:46;;;;;;;;;;;5.00;99.90;;;;;;5089960;28;20417;-65
2022/10/11 04:08:13;;;;;;;;;;;5.00;99.90;;;;;;5089819;28;19942;-65
2022/10/11 04:10:39;;;;;;;;;;;5.00;99.90;;;;;;5098658;28;19924;-65
2022/10/11 04:13:06;;;;;;;;;;;5.00;99.90;;;;;;5095740;28;19931;-65
2022/10/11 04:15:33;;;;;;;;;;;5.00;99.90;;;;;;5095016;28;20218;-65
2022/10/11 04:17:59;;;;;;;;;;;4.90;99.90;;;;;;5091569;28;20331;-65
2022/10/11 04:20:26;;;;;;;;;;;4.80;99.90;;;;;;5093853;28;19959;-65
2022/10/11 04:22:54;;;;;;;;;;;4.80;99.90;;;;;;5088803;28;19924;-64
2022/10/11 04:25:21;;;;;;;;;;;4.80;99.90;;;;;;5090305;28;20372;-65
2022/10/11 04:27:47;;;;;;;;;;;4.80;99.90;;;;;;5088859;28;19924;-64
2022/10/11 04:30:15;;;;;;;;;;;4.80;99.90;;;;;;5093847;28;19931;-64
2022/10/11 04:32:41;;;;;;;;;;;4.80;99.90;;;;;;5090897;28;19924;-64
2022/10/11 04:35:09;;;;;;;;;;;4.80;99.90;;;;;;5085808;28;19924;-65
2022/10/11 04:37:35;;;;;;;;;;;4.80;99.90;;;;;;5089112;28;20446;-64
2022/10/11 04:40:03;;;;;;;;;;;4.80;99.90;;;;;;5092853;28;20421;-65
2022/10/11 04:42:30;;;;;;;;;;;4.80;99.90;;;;;;5103956;28;19924;-65
2022/10/11 04:44:57;;;;;;;;;;;4.70;99.90;;;;;;5089869;28;19929;-65
2022/10/11 04:47:23;;;;;;;;;;;4.80;99.90;;;;;;5087213;28;20289;-64
2022/10/11 04:49:50;;;;;;;;;;;4.80;99.90;;;;;;5088237;28;20457;-65
2022/10/11 04:52:17;;;;;;;;;;;4.80;99.90;;;;;;5092020;28;19928;-65
2022/10/11 04:54:43;;;;;;;;;;;4.70;99.90;;;;;;5090045;28;19931;-64
2022/10/11 04:57:11;;;;;;;;;;;4.80;99.90;;;;;;5079066;28;20013;-64
2022/10/11 04:59:38;;;;;;;;;;;4.80;99.90;;;;;;5089240;28;20042;-64
2022/10/11 05:02:05;;;;;;;;;;;4.80;99.90;;;;;;5095176;28;19924;-64
2022/10/11 05:04:31;;;;;;;;;;;4.70;99.90;;;;;;5091901;28;19946;-64
2022/10/11 05:06:58;;;;;;;;;;;4.70;99.90;;;;;;5103470;28;19954;-64
2022/10/11 05:09:25;;;;;;;;;;;4.60;99.90;;;;;;5090653;28;19967;-64
2022/10/11 05:11:52;;;;;;;;;;;4.70;99.90;;;;;;5103961;28;19933;-63
2022/10/11 05:14:20;;;;;;;;;;;4.70;99.90;;;;;;5091420;28;19923;-63
2022/10/11 05:16:46;;;;;;;;;;;4.80;99.90;;;;;;5088708;28;20450;-64
2022/10/11 05:19:13;;;;;;;;;;;4.80;99.90;;;;;;5091778;28;19924;-65
2022/10/11 05:21:40;;;;;;;;;;;4.80;99.90;;;;;;5095836;28;20022;-64
2022/10/11 05:24:06;;;;;;;;;;;4.60;99.90;;;;;;5091574;28;19924;-64
2022/10/11 05:26:33;;;;;;;;;;;4.60;99.90;;;;;;5087818;28;19924;-64
2022/10/11 05:29:00;;;;;;;;;;;4.50;99.90;;;;;;5089569;28;19924;-63
2022/10/11 05:31:28;;;;;;;;;;;4.50;99.90;;;;;;5086402;28;19930;-64
2022/10/11 05:33:54;;;;;;;;;;;4.60;99.90;;;;;;5082473;28;20038;-63
2022/10/11 05:36:22;;;;;;;;;;;4.50;99.90;;;;;;5091969;28;19925;-65
2022/10/11 05:38:49;;;;;;;;;;;4.50;99.90;;;;;;5096645;28;19946;-65
2022/10/11 05:41:16;;;;;;;;;;;4.50;99.90;;;;;;5099273;28;20466;-65
2022/10/11 05:43:44;;;;;;;;;;;4.50;99.90;;;;;;5087680;28;19939;-65
2022/10/11 05:46:12;;;;;;;;;;;4.50;99.90;;;;;;5087151;28;20338;-65
2022/10/11 05:48:40;;;;;;;;;;;4.40;99.90;;;;;;5087681;28;19929;-64
2022/10/11 05:51:08;;;;;;;;;;;4.50;99.90;;;;;;5092505;28;20442;-65
2022/10/11 05:53:35;;;;;;;;;;;4.50;99.90;;;;;;5090059;28;20032;-64
2022/10/11 05:56:02;;;;;;;;;;;4.70;99.90;;;;;;5085207;28;20283;-65
2022/10/11 05:58:30;;;;;;;;;;;4.80;99.90;;;;;;5090833;28;21304;-64
2022/10/11 06:00:56;;;;;;;;;;;4.90;99.90;;;;;;5089570;28;19928;-64
2022/10/11 06:03:23;;;;;;;;;;;5.00;99.90;;;;;;5090589;28;19935;-64
2022/10/11 06:05:51;;;;;;;;;;;5.20;99.90;;;;;;5092600;28;19970;-63
2022/10/11 06:08:18;;;;;;;;;;;5.20;99.90;;;;;;5082835;28;19933;-65
2022/10/11 06:10:45;;;;;;;;;;;5.30;99.90;;;;;;5080180;28;19932;-64
2022/10/11 06:13:11;;;;;;;;;;;5.40;99.90;;;;;;5089417;28;20023;-65
2022/10/11 06:15:38;;;;;;;;;;;5.40;99.90;;;;;;5102706;28;19934;-65
2022/10/11 06:18:05;;;;;;;;;;;5.50;99.90;;;;;;5092543;28;19930;-64
2022/10/11 06:20:32;;;;;;;;;;;5.60;99.90;;;;;;5087181;28;20374;-64
2022/10/11 06:23:00;;;;;;;;;;;5.60;99.90;;;;;;5086884;28;20382;-64
2022/10/11 06:25:27;;;;;;;;;;;5.60;99.90;;;;;;5092152;28;19924;-64
2022/10/11 06:27:53;;;;;;;;;;;5.60;99.90;;;;;;5088570;28;19932;-64
2022/10/11 06:30:20;;;;;;;;;;;5.80;99.90;;;;;;5095875;28;19967;-64
2022/10/11 06:32:47;;;;;;;;;;;5.80;99.90;;;;;;5070653;28;20027;-63
2022/10/11 06:35:13;;;;;;;;;;;5.90;99.90;;;;;;5089744;28;20039;-64
2022/10/11 06:37:40;;;;;;;;;;;6.00;99.90;;;;;;5091027;28;19964;-65
2022/10/11 06:40:09;;;;;;;;;;;6.00;99.90;;;;;;5094585;28;19924;-64
2022/10/11 06:42:35;;;;;;;;;;;6.00;99.90;;;;;;5092447;28;19924;-65
2022/10/11 06:45:02;;;;;;;;;;;6.10;99.90;;;;;;5094414;28;19932;-65
2022/10/11 06:47:29;;;;;;;;;;;6.10;99.90;;;;;;5094417;28;19928;-65
2022/10/11 06:49:56;;;;;;;;;;;6.10;99.90;;;;;;5097106;28;20042;-65
2022/10/11 06:52:22;;;;;;;;;;;6.20;99.90;;;;;;5111602;28;20014;-65
2022/10/11 06:54:49;;;;;;;;;;;6.20;99.90;;;;;;5092264;28;20018;-64
2022/10/11 06:57:17;;;;;;;;;;;6.30;99.90;;;;;;5094209;28;20027;-65
2022/10/11 06:59:44;;;;;;;;;;;6.30;99.90;;;;;;5096980;28;19932;-65
2022/10/11 07:02:10;;;;;;;;;;;6.40;99.90;;;;;;5087490;28;19971;-65
2022/10/11 07:04:38;;;;;;;;;;;6.50;99.90;;;;;;5087423;28;19928;-65
2022/10/11 07:07:04;;;;;;;;;;;6.70;99.90;;;;;;5090725;28;19924;-64
2022/10/11 07:09:31;;;;;;;;;;;6.80;99.90;;;;;;5093437;28;19931;-65
2022/10/11 07:11:58;;;;;;;;;;;7.00;99.90;;;;;;5083398;28;19931;-65
2022/10/11 07:14:26;;;;;;;;;;;7.10;99.90;;;;;;5090534;28;19924;-65
2022/10/11 07:16:52;;;;;;;;;;;7.20;99.90;;;;;;5089884;28;20015;-65
2022/10/11 07:19:19;;;;;;;;;;;7.40;99.90;;;;;;5089221;28;20303;-65
2022/10/11 07:21:46;;;;;;;;;;;7.60;99.90;;;;;;5088501;28;20019;-65
2022/10/11 07:24:12;;;;;;;;;;;7.60;99.90;;;;;;5089825;28;19931;-64
2022/10/11 07:26:39;;;;;;;;;;;7.60;99.90;;;;;;5091080;28;19970;-65
2022/10/11 07:29:07;;;;;;;;;;;7.70;99.90;;;;;;5087821;28;20018;-65
2022/10/11 07:31:36;;;;;;;;;;;7.70;99.90;;;;;;5089361;28;19930;-65
2022/10/11 07:34:03;;;;;;;;;;;7.80;99.90;;;;;;5093111;28;19930;-66
2022/10/11 07:36:29;;;;;;;;;;;8.00;99.90;;;;;;5087240;28;20027;-65
2022/10/11 07:38:56;;;;;;;;;;;8.10;99.90;;;;;;5091215;28;19924;-65
2022/10/11 07:41:22;;;;;;;;;;;8.10;99.90;;;;;;5090305;28;20018;-65
2022/10/11 07:43:50;;;;;;;;;;;8.30;99.90;;;;;;5087069;28;19931;-65
2022/10/11 07:46:17;;;;;;;;;;;8.60;99.90;;;;;;5087854;28;19931;-65
2022/10/11 07:48:45;;;;;;;;;;;10.10;99.90;;;;;;5089143;28;20342;-63
2022/10/11 07:51:12;;;;;;;;;;;11.50;99.90;;;;;;5081827;28;19924;-65
2022/10/11 07:53:40;;;;;;;;;;;12.60;99.90;;;;;;5082020;28;20030;-65
2022/10/11 07:56:07;;;;;;;;;;;14.20;99.90;;;;;;5090022;28;20022;-66
2022/10/11 07:58:33;;;;;;;;;;;15.60;99.90;;;;;;5090712;28;19931;-65
2022/10/11 08:01:00;;;;;;;;;;;16.90;99.90;;;;;;5085579;28;20010;-65
2022/10/11 08:03:27;;;;;;;;;;;17.70;97.60;;;;;;5106585;28;20397;-65
2022/10/11 08:05:58;;;;;;;;;;;18.70;91.30;;;;;;5098433;28;19923;-65
2022/10/11 08:08:25;;;;;;;;;;;19.20;81.00;;;;;;5091858;28;20339;-65
2022/10/11 08:10:52;;;;;;;;;;;19.80;72.20;;;;;;5093989;28;20400;-65
2022/10/11 08:13:18;;;;;;;;;;;19.90;67.10;;;;;;5096449;28;20011;-66
2022/10/11 08:15:45;;;;;;;;;;;19.90;61.90;;;;;;5086046;28;19932;-65
2022/10/11 08:18:12;;;;;;;;;;;20.40;61.50;;;;;;5088391;28;19924;-66
2022/10/11 08:20:39;;;;;;;;;;;20.80;53.60;;;;;;5093169;28;19928;-65
2022/10/11 08:23:08;;;;;;;;;;;20.70;54.90;;;;;;5090474;28;19924;-65
2022/10/11 08:25:36;;;;;;;;;;;20.90;50.50;;;;;;5091209;28;20019;-66
2022/10/11 08:28:03;;;;;;;;;;;21.00;48.20;;;;;;5088901;28;19924;-66
2022/10/11 08:30:29;;;;;;;;;;;21.00;46.90;;;;;;5088500;28;19932;-66
2022/10/11 08:32:56;;;;;;;;;;;21.60;45.20;;;;;;5091914;28;19924;-66
2022/10/11 08:35:23;;;;;;;;;;;21.50;41.60;;;;;;5100994;28;19978;-65
2022/10/11 08:37:49;;;;;;;;;;;21.70;40.60;;;;;;5086930;28;20027;-66
2022/10/11 08:40:19;;;;;;;;;;;21.80;38.30;;;;;;5089703;28;20023;-66
2022/10/11 08:42:48;;;;;;;;;;;21.40;37.50;;;;;;5090795;28;19977;-65
2022/10/11 08:45:21;;;;;;;;;;;21.30;39.60;;;;;;5107254;28;20390;-66
2022/10/11 08:47:48;;;;;;;;;;;21.40;38.80;;;;;;5085499;28;20180;-65
2022/10/11 08:50:17;;;;;;;;;;;21.40;39.20;;;;;;5088505;28;19928;-66
2022/10/11 08:52:46;;;;;;;;;;;21.70;36.80;;;;;;5091633;28;19924;-66
2022/10/11 08:55:18;;;;;;;;;;;22.20;36.50;;;;;;5083552;28;19934;-65
2022/10/11 08:57:48;;;;;;;;;;;23.10;32.30;;;;;;5088036;28;19943;-66
2022/10/11 09:00:17;;;;;;;;;;;23.40;29.80;;;;;;5102562;28;19930;-65
2022/10/11 09:02:46;;;;;;;;;;;23.20;28.40;;;;;;5083772;28;19924;-66
2022/10/11 09:05:14;;;;;;;;;;;23.00;29.60;;;;;;5084465;28;20497;-67
2022/10/11 09:07:45;;;;;;;;;;;23.10;29.20;;;;;;5088021;28;19939;-65
2022/10/11 09:10:21;;;;;;;;;;;23.00;29.80;;;;;;5104957;28;19924;-66
2022/10/11 09:12:54;;;;;;;;;;;22.40;32.10;;;;;;5090312;28;19932;-66
2022/10/11 09:15:27;;;;;;;;;;;22.40;31.50;;;;;;5090787;28;19930;-66
2022/10/11 09:18:09;;;;;;;;;;;22.30;30.40;;;;;;5090646;28;20007;-65
2022/10/11 09:20:43;;;;;;;;;;;22.40;29.70;;;;;;5090343;28;19924;-65
2022/10/11 09:23:14;;;;;;;;;;;21.70;30.40;;;;;;5079096;28;19946;-66
2022/10/11 09:25:45;;;;;;;;;;;18.40;53.70;;;;;;5085884;28;19924;-70
2022/10/11 09:28:17;;;;;;;;;;;17.50;73.20;;;;;;5087784;28;19924;-65
2022/10/11 09:30:47;;;;;;;;;;;16.70;78.90;;;;;;5094069;28;19930;-67
2022/10/11 09:33:17;;;;;;;;;;;15.70;90.60;;;;;;5087008;28;19928;-65
2022/10/11 09:35:46;;;;;;;;;;;14.80;96.50;;;;;;5081661;28;19925;-66
2022/10/11 09:38:17;;;;;;;;;;;14.40;97.10;;;;;;5086492;28;19977;-66
2022/10/11 09:40:48;;;;;;;;;;;14.30;97.10;;;;;;5100282;28;19924;-65
2022/10/11 09:43:16;;;;;;;;;;;14.10;99.10;;;;;;5089597;28;20354;-65
2022/10/11 09:45:45;;;;;;;;;;;14.20;99.90;;;;;;5089130;28;19924;-66
2022/10/11 09:48:15;;;;;;;;;;;14.40;99.90;;;;;;5081057;28;19931;-64
2022/10/11 09:50:42;;;;;;;;;;;14.40;99.90;;;;;;5093573;28;20014;-66
2022/10/11 09:53:09;;;;;;;;;;;14.10;99.90;;;;;;5087632;28;20039;-65
2022/10/11 09:55:36;;;;;;;;;;;14.00;98.90;;;;;;5079138;28;20337;-66
2022/10/11 09:58:03;;;;;;;;;;;14.20;98.30;;;;;;5086997;28;19963;-65
2022/10/11 10:00:32;;;;;;;;;;;14.40;96.90;;;;;;5089010;28;20414;-65
2022/10/11 10:03:00;;;;;;;;;;;14.60;95.80;;;;;;5076065;28;20008;-66
2022/10/11 10:05:27;;;;;;;;;;;14.70;96.40;;;;;;5081966;28;19930;-66
2022/10/11 10:07:58;;;;;;;;;;;14.70;95.70;;;;;;5081085;28;20007;-66
2022/10/11 10:10:27;;;;;;;;;;;14.90;95.00;;;;;;5085849;28;20563;-65
2022/10/11 10:12:54;;;;;;;;;;;14.90;94.90;;;;;;5089643;28;19931;-66
2022/10/11 10:15:21;;;;;;;;;;;14.40;93.70;;;;;;5090300;28;19924;-66
2022/10/11 10:17:50;;;;;;;;;;;14.40;93.90;;;;;;5092749;28;19924;-66
2022/10/11 10:20:19;;;;;;;;;;;14.10;94.40;;;;;;5093104;28;19924;-66
2022/10/11 10:22:46;;;;;;;;;;;14.00;94.80;;;;;;5086999;28;19924;-66
2022/10/11 10:25:20;;;;;;;;;;;13.90;93.20;;;;;;5087022;28;19961;-65
2022/10/11 10:27:55;;;;;;;;;;;14.00;95.30;;;;;;5090516;28;19930;-66
2022/10/11 10:30:22;;;;;;;;;;;14.00;95.20;;;;;;5085660;28;19983;-66
2022/10/11 10:32:53;;;;;;;;;;;14.30;95.10;;;;;;5082826;28;19978;-67
2022/10/11 10:35:28;;;;;;;;;;;14.20;94.30;;;;;;5090221;28;20271;-66
2022/10/11 10:37:59;;;;;;;;;;;14.20;93.90;;;;;;5089038;28;20018;-66
2022/10/11 10:40:30;;;;;;;;;;;14.20;93.70;;;;;;5080595;28;20038;-66
2022/10/11 10:42:57;;;;;;;;;;;14.10;93.80;;;;;;5091684;28;19956;-65
2022/10/11 10:45:26;;;;;;;;;;;14.30;94.40;;;;;;5089809;28;19935;-65
2022/10/11 10:48:03;;;;;;;;;;;14.60;93.90;;;;;;5090073;28;20035;-66
2022/10/11 10:50:32;;;;;;;;;;;14.80;93.40;;;;;;5091904;28;19928;-65
2022/10/11 10:53:05;;;;;;;;;;;14.70;93.10;;;;;;5094019;28;19959;-65
2022/10/11 10:55:34;;;;;;;;;;;14.80;93.00;;;;;;5092652;28;19931;-65
2022/10/11 10:58:05;;;;;;;;;;;14.90;92.50;;;;;;5089936;28;20022;-65
2022/10/11 11:00:36;;;;;;;;;;;15.00;92.10;;;;;;5084724;28;20398;-65
2022/10/11 11:03:06;;;;;;;;;;;15.10;91.90;;;;;;5087355;28;19925;-66
2022/10/11 11:05:38;;;;;;;;;;;15.10;91.70;;;;;;5093145;28;19936;-66
2022/10/11 11:08:13;;;;;;;;;;;14.80;92.20;;;;;;5096447;28;19931;-66
2022/10/11 11:10:45;;;;;;;;;;;14.70;91.80;;;;;;5085638;28;19932;-66
2022/10/11 11:13:29;;;;;;;;;;;15.00;91.70;;;;;;5090912;28;20026;-66
2022/10/11 11:15:59;;;;;;;;;;;15.00;90.70;;;;;;5086540;28;19924;-65
2022/10/11 11:18:33;;;;;;;;;;;15.20;90.40;;;;;;5112875;28;20039;-66
2022/10/11 11:21:08;;;;;;;;;;;15.10;91.20;;;;;;5096016;28;19954;-66
2022/10/11 11:23:40;;;;;;;;;;;15.20;90.80;;;;;;5091910;28;19928;-66
2022/10/11 11:26:10;;;;;;;;;;;14.80;90.30;;;;;;5094146;28;20386;-65
2022/10/11 11:29:04;;;;;;;;;;;14.60;89.70;;;;;;5092225;28;20323;-65
2022/10/11 11:31:51;;;;;;;;;;;14.80;90.80;;;;;;5055249;28;19932;-66
2022/10/11 11:34:21;;;;;;;;;;;14.60;90.10;;;;;;5081160;28;19932;-65
2022/10/11 11:36:51;;;;;;;;;;;14.40;90.50;;;;;;5093594;28;19931;-65
2022/10/11 11:39:20;;;;;;;;;;;14.70;91.50;;;;;;5088866;28;20350;-65
2022/10/11 11:41:50;;;;;;;;;;;14.90;90.40;;;;;;5095355;28;19925;-65
2022/10/11 11:44:19;;;;;;;;;;;14.60;89.30;;;;;;5091722;28;19936;-65
2022/10/11 11:46:49;;;;;;;;;;;14.90;89.70;;;;;;5086588;28;19924;-65
2022/10/11 11:49:18;;;;;;;;;;;15.00;89.90;;;;;;5096678;28;19929;-65
2022/10/11 11:51:46;;;;;;;;;;;15.10;90.40;;;;;;5092404;28;19995;-66
2022/10/11 11:54:20;;;;;;;;;;;15.10;87.70;;;;;;5088879;28;19924;-62
2022/10/11 11:56:51;;;;;;;;;;;15.20;88.90;;;;;;5091211;28;19924;-67
2022/10/11 11:59:21;;;;;;;;;;;15.20;89.70;;;;;;5084953;28;19935;-66
2022/10/11 12:01:52;;;;;;;;;;;15.10;89.40;;;;;;5090019;28;19924;-66
2022/10/11 12:04:22;;;;;;;;;;;15.20;89.90;;;;;;5082506;28;19924;-65
2022/10/11 12:06:58;;;;;;;;;;;15.60;88.50;;;;;;5086290;28;19924;-65
2022/10/11 12:09:25;;;;;;;;;;;15.90;87.70;;;;;;5089674;28;19929;-65
2022/10/11 12:11:54;;;;;;;;;;;16.30;87.70;;;;;;5086051;28;19924;-65
2022/10/11 12:14:26;;;;;;;;;;;16.60;85.50;;;;;;5085008;28;19958;-65
2022/10/11 12:17:10;;;;;;;;;;;16.80;84.00;;;;;;5079008;28;19942;-65
2022/10/11 12:19:38;;;;;;;;;;;16.80;80.90;;;;;;5092173;28;19934;-66
2022/10/11 12:22:19;;;;;;;;;;;16.50;80.30;;;;;;5091090;28;19934;-65
2022/10/11 12:24:54;;;;;;;;;;;16.50;80.40;;;;;;5093216;28;20453;-64
2022/10/11 12:27:37;;;;;;;;;;;16.50;80.30;;;;;;5089492;28;19928;-66
2022/10/11 12:30:05;;;;;;;;;;;16.10;78.20;;;;;;5086976;28;20019;-65
2022/10/11 12:32:52;;;;;;;;;;;15.60;79.00;;;;;;5086828;28;19929;-65
2022/10/11 12:35:38;;;;;;;;;;;15.90;80.50;;;;;;5085245;28;22622;-65
2022/10/11 12:38:13;;;;;;;;;;;16.20;78.20;;;;;;5086784;28;19955;-66
2022/10/11 12:40:41;;;;;;;;;;;16.30;77.30;;;;;;5093852;28;19971;-65
2022/10/11 12:43:09;;;;;;;;;;;16.50;77.30;;;;;;5088367;28;19930;-65
2022/10/11 12:45:36;;;;;;;;;;;16.70;75.20;;;;;;5097623;28;20397;-66
2022/10/11 12:48:11;;;;;;;;;;;16.60;75.40;;;;;;5088057;28;20293;-65
2022/10/11 12:50:41;;;;;;;;;;;16.80;74.70;;;;;;5087020;28;19932;-66
2022/10/11 12:53:17;;;;;;;;;;;16.40;76.30;;;;;;5091881;28;19924;-66
2022/10/11 12:55:48;;;;;;;;;;;16.20;75.30;;;;;;5104859;28;19934;-64
2022/10/11 12:58:26;;;;;;;;;;;16.10;74.20;;;;;;5085734;28;20371;-65
2022/10/11 13:01:10;;;;;;;;;;;16.10;74.90;;;;;;5086300;28;19960;-65
2022/10/11 13:03:39;;;;;;;;;;;16.00;72.60;;;;;;5087012;28;19932;-65
2022/10/11 13:06:10;;;;;;;;;;;15.80;72.00;;;;;;5090846;28;20302;-65
2022/10/11 13:08:40;;;;;;;;;;;15.80;73.60;;;;;;5086676;28;20015;-65
2022/10/11 13:11:09;;;;;;;;;;;15.80;73.10;;;;;;5091118;28;19971;-65
2022/10/11 13:13:38;;;;;;;;;;;15.70;71.40;;;;;;5091045;28;19942;-65
2022/10/11 13:16:09;;;;;;;;;;;15.70;72.30;;;;;;5088435;28;21340;-64
2022/10/11 13:18:35;;;;;;;;;;;15.60;76.40;;;;;;5086674;28;20046;-64
2022/10/11 13:21:02;;;;;;;;;;;15.40;76.70;;;;;;5090313;28;19924;-64
2022/10/11 13:23:30;;;;;;;;;;;15.60;78.60;;;;;;5088219;28;19924;-64
2022/10/11 13:26:00;;;;;;;;;;;15.70;78.00;;;;;;5074853;28;19932;-64
2022/10/11 13:28:28;;;;;;;;;;;15.50;76.60;;;;;;5088394;28;19924;-64
2022/10/11 13:30:57;;;;;;;;;;;15.50;75.50;;;;;;5089834;28;19924;-64
2022/10/11 13:33:26;;;;;;;;;;;15.60;74.50;;;;;;5087110;28;19928;-64
2022/10/11 13:35:53;;;;;;;;;;;15.40;74.30;;;;;;5086115;28;19966;-65
2022/10/11 13:38:22;;;;;;;;;;;15.40;73.50;;;;;;5092177;28;19924;-65
2022/10/11 13:40:50;;;;;;;;;;;15.50;73.70;;;;;;5092159;28;19924;-65
2022/10/11 13:43:26;;;;;;;;;;;15.40;73.60;;;;;;5084831;28;19923;-64
2022/10/11 13:45:53;;;;;;;;;;;15.40;71.90;;;;;;5090803;28;19947;-65
2022/10/11 13:48:20;;;;;;;;;;;15.40;74.70;;;;;;5106554;28;19924;-65
2022/10/11 13:51:02;;;;;;;;;;;15.20;74.20;;;;;;5087286;28;19928;-65
2022/10/11 13:53:28;;;;;;;;;;;15.10;75.00;;;;;;5077468;28;19923;-65
2022/10/11 13:55:56;;;;;;;;;;;15.00;73.40;;;;;;5096615;28;19932;-64
2022/10/11 13:58:26;;;;;;;;;;;15.10;74.10;;;;;;5093482;28;20007;-65
2022/10/11 14:00:54;;;;;;;;;;;15.20;75.90;;;;;;5091272;28;20022;-66
2022/10/11 14:03:21;;;;;;;;;;;15.10;78.50;;;;;;5078482;28;19924;-66
2022/10/11 14:05:53;;;;;;;;;;;15.00;78.40;;;;;;5096288;28;19977;-66
2022/10/11 14:08:21;;;;;;;;;;;15.10;77.80;;;;;;5098797;28;19963;-65
2022/10/11 14:10:49;;;;;;;;;;;15.20;78.00;;;;;;5085848;28;19931;-66
2022/10/11 14:13:23;;;;;;;;;;;15.40;77.10;;;;;;5090206;28;20367;-65
2022/10/11 14:16:03;;;;;;;;;;;15.30;74.40;;;;;;5094716;28;19981;-65
2022/10/11 14:18:53;;;;;;;;;;;15.20;72.60;;;;;;5084905;28;20002;-64
2022/10/11 14:21:24;;;;;;;;;;;15.20;71.60;;;;;;5068105;28;20055;-66
2022/10/11 14:23:53;;;;;;;;;;;15.20;72.60;;;;;;5076167;28;20347;-65
2022/10/11 14:26:20;;;;;;;;;;;15.10;71.50;;;;;;5088765;28;19928;-65
2022/10/11 14:28:49;;;;;;;;;;;15.10;71.10;;;;;;5085881;28;19931;-65
2022/10/11 14:31:17;;;;;;;;;;;15.20;72.80;;;;;;5080179;28;19959;-65
2022/10/11 14:33:44;;;;;;;;;;;15.30;75.40;;;;;;5083166;28;20000;-68